Time;durP1;ratioP1;P1;durP2;ratioP2;P2;SDS_P1;SDS_P2;PMS_P1;PMS_P2;Temp;Humidity;BMP_temperature;BMP_pressure;BME280_temperature;BME280_humidity;BME280_pressure;Samples;Min_cycle;Max_cycle;Signal;HPM_P1;HPM_P2
2023/03/03 00:00:55;;;;;;;13.80;8.67;;;3.90;1.00;;;;;;5073131;28;20548;-79
2023/03/03 00:10:05;;;;;;;20.90;10.23;;;3.80;1.00;;;;;;5072820;28;20448;-79
2023/03/03 00:19:17;;;;;;;14.13;7.90;;;3.70;1.00;;;;;;5073090;28;20396;-79
2023/03/03 00:25:27;;;;;;;20.90;11.20;;;3.70;1.00;;;;;;5065250;28;20452;-79
2023/03/03 00:28:26;;;;;;;17.30;8.90;;;3.70;1.00;;;;;;5077229;28;20463;-79
2023/03/03 00:41:42;;;;;;;19.10;9.40;;;3.70;1.00;;;;;;5076110;28;20566;-79
2023/03/03 00:44:44;;;;;;;22.10;11.37;;;3.60;1.00;;;;;;5076533;28;20405;-74
2023/03/03 00:47:34;;;;;;;19.40;10.80;;;3.60;1.00;;;;;;4991281;28;20433;-74
2023/03/03 00:50:06;;;;;;;19.07;9.90;;;3.50;1.00;;;;;;4984477;28;20937;-74
2023/03/03 00:52:43;;;;;;;19.83;10.07;;;3.50;1.00;;;;;;4983300;28;20412;-74
2023/03/03 00:55:13;;;;;;;24.70;11.50;;;3.50;1.00;;;;;;4998810;28;20424;-74
2023/03/03 01:01:00;;;;;;;23.37;11.30;;;3.40;1.00;;;;;;5014587;28;20361;-79
2023/03/03 01:06:48;;;;;;;22.10;11.48;;;3.40;1.00;;;;;;5013880;28;20270;-79
2023/03/03 01:12:37;;;;;;;22.95;11.70;;;3.30;1.00;;;;;;5007259;28;20410;-75
2023/03/03 01:15:13;;;;;;;24.60;11.57;;;3.20;1.00;;;;;;5013988;28;20267;-74
2023/03/03 01:17:40;;;;;;;23.38;12.48;;;3.20;1.00;;;;;;5013520;28;20224;-74
2023/03/03 01:20:08;;;;;;;20.73;11.60;;;3.20;1.00;;;;;;5013361;28;20188;-74
2023/03/03 01:22:49;;;;;;;29.20;13.40;;;3.10;1.00;;;;;;5017294;28;20421;-74
2023/03/03 01:25:19;;;;;;;24.80;11.77;;;3.10;1.00;;;;;;5074952;28;20460;-74
2023/03/03 01:35:07;;;;;;;24.70;13.73;;;3.00;1.00;;;;;;5064954;28;20218;-80
2023/03/03 01:40:56;;;;;;;29.27;14.55;;;2.80;1.00;;;;;;5074202;28;20537;-80
2023/03/03 01:50:34;;;;;;;29.52;16.02;;;2.70;1.00;;;;;;5072711;28;20273;-79
2023/03/03 01:59:48;;;;;;;32.55;16.50;;;2.60;1.00;;;;;;5055649;28;20167;-80
2023/03/03 02:02:45;;;;;;;31.50;15.80;;;2.60;1.00;;;;;;5054896;28;20152;-80
2023/03/03 02:05:38;;;;;;;29.95;15.38;;;2.60;1.00;;;;;;5072283;28;20700;-80
2023/03/03 02:08:04;;;;;;;36.17;17.67;;;2.60;1.00;;;;;;5054838;28;20191;-80
2023/03/03 02:11:13;;;;;;;34.00;16.73;;;2.60;1.00;;;;;;5074857;28;20504;-80
2023/03/03 02:13:43;;;;;;;26.02;14.80;;;2.60;1.00;;;;;;5075797;28;20471;-74
2023/03/03 02:16:14;;;;;;;26.15;13.27;;;2.50;1.00;;;;;;5074339;28;20182;-74
2023/03/03 02:18:39;;;;;;;28.40;15.10;;;2.40;1.00;;;;;;5052005;28;20266;-75
2023/03/03 02:21:27;;;;;;;29.03;16.10;;;2.40;1.00;;;;;;5074472;28;20266;-75
2023/03/03 02:24:07;;;;;;;34.58;16.77;;;2.30;1.00;;;;;;5064336;28;20441;-75
2023/03/03 02:26:36;;;;;;;33.33;16.92;;;2.30;1.00;;;;;;5042236;28;20658;-75
2023/03/03 02:29:13;;;;;;;30.40;15.63;;;2.30;1.00;;;;;;5073896;28;20646;-80
2023/03/03 02:31:43;;;;;;;31.23;16.35;;;2.30;1.00;;;;;;5073094;28;20171;-79
2023/03/03 02:44:17;;;;;;;29.10;15.63;;;2.10;1.00;;;;;;5063617;28;20181;-75
2023/03/03 02:46:46;;;;;;;29.27;15.63;;;2.00;1.00;;;;;;5064100;28;20225;-75
2023/03/03 02:49:15;;;;;;;32.38;16.05;;;1.90;1.00;;;;;;5084215;28;20232;-74
2023/03/03 02:51:49;;;;;;;30.25;16.48;;;1.90;1.00;;;;;;5073894;28;20197;-75
2023/03/03 02:54:21;;;;;;;29.70;15.75;;;1.80;1.00;;;;;;5074145;28;20262;-75
2023/03/03 02:56:49;;;;;;;36.00;19.50;;;1.80;1.00;;;;;;5064382;28;20179;-75
2023/03/03 02:59:15;;;;;;;34.58;18.15;;;1.70;1.00;;;;;;5074019;28;20637;-74
2023/03/03 03:01:42;;;;;;;43.75;18.60;;;1.70;1.00;;;;;;5073926;28;20163;-74
2023/03/03 03:04:14;;;;;;;28.05;17.15;;;1.70;1.00;;;;;;5073647;28;20174;-75
2023/03/03 03:06:40;;;;;;;32.78;17.52;;;1.70;1.00;;;;;;5062528;28;20847;-75
2023/03/03 03:09:08;;;;;;;30.33;16.65;;;1.60;1.00;;;;;;5073641;28;20156;-75
2023/03/03 03:11:34;;;;;;;32.35;17.40;;;1.60;1.00;;;;;;5073260;28;20684;-74
2023/03/03 03:14:03;;;;;;;31.88;18.27;;;1.60;1.00;;;;;;5073961;28;20187;-74
2023/03/03 03:16:37;;;;;;;34.13;18.05;;;1.60;1.00;;;;;;5074011;28;20202;-75
2023/03/03 03:19:08;;;;;;;33.88;18.20;;;1.50;1.00;;;;;;5075752;28;20223;-75
2023/03/03 03:22:19;;;;;;;35.15;18.60;;;1.50;1.00;;;;;;5071527;28;20673;-75
2023/03/03 03:24:49;;;;;;;37.58;18.52;;;1.50;1.00;;;;;;5062507;28;20182;-75
2023/03/03 03:27:19;;;;;;;35.85;18.40;;;1.40;1.00;;;;;;5073573;28;20186;-75
2023/03/03 03:29:49;;;;;;;36.47;18.70;;;1.40;1.00;;;;;;5074071;28;20645;-75
2023/03/03 03:32:25;;;;;;;41.15;20.50;;;1.40;1.00;;;;;;5073642;28;20182;-74
2023/03/03 03:34:51;;;;;;;44.70;19.75;;;1.40;1.00;;;;;;5083313;28;20174;-75
2023/03/03 03:37:19;;;;;;;43.67;20.63;;;1.40;1.00;;;;;;5085790;28;20253;-75
2023/03/03 03:39:55;;;;;;;46.55;21.05;;;1.40;1.00;;;;;;5072928;28;20182;-74
2023/03/03 03:42:25;;;;;;;37.03;19.33;;;1.40;1.00;;;;;;5073161;28;20163;-75
2023/03/03 03:44:51;;;;;;;44.17;21.45;;;1.50;1.00;;;;;;5065512;28;20202;-75
2023/03/03 03:47:19;;;;;;;42.67;20.97;;;1.50;1.00;;;;;;5066427;28;20179;-74
2023/03/03 03:49:49;;;;;;;48.45;22.85;;;1.50;1.00;;;;;;5067857;28;20575;-75
2023/03/03 03:52:15;;;;;;;41.63;22.10;;;1.60;1.00;;;;;;5053400;28;20164;-74
2023/03/03 03:55:13;;;;;;;46.27;23.13;;;1.60;1.00;;;;;;5068863;28;20224;-75
2023/03/03 03:57:40;;;;;;;46.30;22.02;;;1.70;1.00;;;;;;5077041;28;20171;-76
2023/03/03 04:06:49;;;;;;;41.75;22.05;;;1.80;1.00;;;;;;5088184;28;20221;-80
2023/03/03 04:16:02;;;;;;;47.65;22.42;;;1.90;1.00;;;;;;5073595;28;20189;-75
2023/03/03 04:18:28;;;;;;;48.47;22.00;;;1.90;1.00;;;;;;5076981;28;20155;-75
2023/03/03 04:21:14;;;;;;;48.47;22.97;;;1.90;1.00;;;;;;5067144;28;20250;-75
2023/03/03 04:23:40;;;;;;;47.08;22.90;;;1.90;1.00;;;;;;5085103;28;20417;-75
2023/03/03 04:26:06;;;;;;;48.60;23.90;;;1.90;1.00;;;;;;5076666;28;20513;-75
2023/03/03 04:28:37;;;;;;;45.40;22.95;;;1.90;1.00;;;;;;5088820;28;20166;-74
2023/03/03 04:31:13;;;;;;;49.33;22.00;;;1.90;1.00;;;;;;5077585;28;20642;-76
2023/03/03 04:33:43;;;;;;;49.70;23.77;;;1.90;1.00;;;;;;5076399;28;20547;-75
2023/03/03 04:36:25;;;;;;;48.70;23.15;;;1.90;1.00;;;;;;5076781;28;20190;-75
2023/03/03 04:39:01;;;;;;;48.08;24.00;;;1.80;1.00;;;;;;5079595;28;21604;-75
2023/03/03 04:41:55;;;;;;;47.63;22.92;;;1.80;1.00;;;;;;5085124;28;20183;-75
2023/03/03 04:47:42;;;;;;;49.83;23.30;;;1.80;1.00;;;;;;5067227;28;20290;-80
2023/03/03 04:51:01;;;;;;;48.20;22.40;;;1.80;1.00;;;;;;5058678;28;20168;-80
2023/03/03 04:53:43;;;;;;;53.53;23.85;;;1.80;1.00;;;;;;5076354;28;20405;-79
2023/03/03 04:56:31;;;;;;;49.47;24.20;;;1.70;1.00;;;;;;5076145;28;20249;-80
2023/03/03 04:59:14;;;;;;;43.90;23.05;;;1.70;1.00;;;;;;5069056;28;20206;-80
2023/03/03 05:05:13;;;;;;;48.35;23.45;;;1.60;1.00;;;;;;5075821;28;20664;-74
2023/03/03 05:07:43;;;;;;;48.47;23.63;;;1.50;1.00;;;;;;5076099;28;20190;-75
2023/03/03 05:10:09;;;;;;;52.80;25.35;;;1.50;1.00;;;;;;5079040;28;20524;-74
2023/03/03 05:12:38;;;;;;;49.88;24.48;;;1.40;1.00;;;;;;5069369;28;20207;-75
2023/03/03 05:15:07;;;;;;;52.38;24.10;;;1.40;1.00;;;;;;5076172;28;20262;-75
2023/03/03 05:17:33;;;;;;;50.13;24.17;;;1.40;1.00;;;;;;5076009;28;20732;-75
2023/03/03 05:19:59;;;;;;;47.87;24.23;;;1.40;1.00;;;;;;5076199;28;20178;-75
2023/03/03 05:22:26;;;;;;;52.50;25.30;;;1.40;1.00;;;;;;5067673;28;20749;-75
2023/03/03 05:25:09;;;;;;;53.13;24.42;;;1.30;1.00;;;;;;5055756;28;20188;-75
2023/03/03 05:27:35;;;;;;;49.92;23.23;;;1.30;1.00;;;;;;5072352;28;20206;-75
2023/03/03 05:30:13;;;;;;;52.20;25.73;;;1.20;1.00;;;;;;5076087;28;20163;-75
2023/03/03 05:32:39;;;;;;;51.05;24.42;;;1.20;1.00;;;;;;5073859;28;20201;-75
2023/03/03 05:35:07;;;;;;;54.90;24.77;;;1.20;1.00;;;;;;5080487;28;20661;-75
2023/03/03 05:37:33;;;;;;;54.75;25.13;;;1.10;1.00;;;;;;5075699;28;20167;-75
2023/03/03 05:40:08;;;;;;;53.13;24.80;;;1.10;1.00;;;;;;5079444;28;20186;-74
2023/03/03 05:42:37;;;;;;;50.08;24.33;;;1.10;1.00;;;;;;5065205;28;20198;-74
2023/03/03 05:45:04;;;;;;;56.42;24.92;;;1.10;1.00;;;;;;5073748;28;20181;-74
2023/03/03 05:47:29;;;;;;;53.40;23.95;;;1.10;1.00;;;;;;5078939;28;20202;-74
2023/03/03 05:49:55;;;;;;;56.00;24.40;;;1.10;1.00;;;;;;5080670;28;20229;-74
2023/03/03 05:52:23;;;;;;;59.78;25.60;;;1.00;1.00;;;;;;5075447;28;20199;-74
2023/03/03 05:54:56;;;;;;;54.92;26.42;;;1.00;1.00;;;;;;5061525;28;20171;-74
2023/03/03 05:57:21;;;;;;;56.55;27.40;;;1.00;1.00;;;;;;5077164;28;20175;-74
2023/03/03 06:00:31;;;;;;;59.93;27.33;;;0.90;1.00;;;;;;5067708;28;20178;-76
2023/03/03 06:06:55;;;;;;;59.03;26.50;;;0.90;1.00;;;;;;5054639;28;20214;-77
2023/03/03 06:09:58;;;;;;;55.40;26.63;;;0.90;1.00;;;;;;5064746;28;20178;-76
2023/03/03 06:13:07;;;;;;;56.63;26.35;;;0.90;1.00;;;;;;5068049;28;20198;-76
2023/03/03 06:19:01;;;;;;;61.22;25.70;;;1.00;1.00;;;;;;5073467;28;20181;-77
2023/03/03 06:28:12;;;;;;;60.05;27.08;;;1.20;1.00;;;;;;5074603;28;20197;-79
2023/03/03 06:31:07;;;;;;;55.22;24.92;;;1.20;1.00;;;;;;5077818;28;20178;-74
2023/03/03 06:33:43;;;;;;;56.42;25.30;;;1.30;1.00;;;;;;5062332;28;20639;-74
2023/03/03 06:36:13;;;;;;;52.42;23.73;;;1.30;1.00;;;;;;5074247;28;20174;-74
2023/03/03 06:38:39;;;;;;;56.17;25.38;;;1.30;1.00;;;;;;5074400;28;20182;-75
2023/03/03 06:41:07;;;;;;;56.85;23.73;;;1.40;1.00;;;;;;5056444;28;20537;-74
2023/03/03 06:43:34;;;;;;;53.63;23.40;;;1.50;1.00;;;;;;5074419;28;20158;-74
2023/03/03 06:45:59;;;;;;;51.17;24.25;;;1.50;1.00;;;;;;5073477;28;20224;-75
2023/03/03 06:48:25;;;;;;;51.73;24.10;;;1.60;1.00;;;;;;5074174;28;20658;-74
2023/03/03 06:51:21;;;;;;;52.97;23.93;;;2.50;1.00;;;;;;5074143;28;20175;-74
2023/03/03 06:53:53;;;;;;;56.45;24.90;;;1.70;1.00;;;;;;5060426;28;20422;-74
2023/03/03 06:56:19;;;;;;;51.92;24.75;;;1.80;1.00;;;;;;5061984;28;20182;-74
2023/03/03 06:58:57;;;;;;;58.37;25.37;;;1.80;1.00;;;;;;5074158;28;20174;-74
2023/03/03 07:01:38;;;;;;;50.78;23.67;;;2.00;1.00;;;;;;5064388;28;20172;-75
2023/03/03 07:04:30;;;;;;;47.13;22.92;;;2.10;1.00;;;;;;5067592;28;20178;-74
2023/03/03 07:07:14;;;;;;;47.05;20.02;;;2.10;1.00;;;;;;5072098;28;20198;-74
2023/03/03 07:09:56;;;;;;;46.67;21.85;;;2.20;1.00;;;;;;5062417;28;20195;-74
2023/03/03 07:12:27;;;;;;;47.58;22.05;;;2.30;1.00;;;;;;5074068;28;20171;-74
2023/03/03 07:15:14;;;;;;;48.25;22.23;;;2.30;1.00;;;;;;5070766;28;20178;-74
2023/03/03 07:17:44;;;;;;;46.58;20.33;;;2.30;1.00;;;;;;5073836;28;20198;-75
2023/03/03 07:20:34;;;;;;;45.05;20.45;;;2.40;1.00;;;;;;5073719;28;20224;-75
2023/03/03 07:23:22;;;;;;;45.63;20.90;;;2.40;1.00;;;;;;5059761;28;20175;-75
2023/03/03 07:25:47;;;;;;;45.45;20.58;;;2.50;1.00;;;;;;5073839;28;20203;-77
2023/03/03 07:28:55;;;;;;;46.03;21.27;;;2.60;1.00;;;;;;5072925;28;20171;-76
2023/03/03 07:32:13;;;;;;;48.90;22.58;;;2.60;1.00;;;;;;5071528;28;20416;-84
2023/03/03 07:35:27;;;;;;;36.75;18.75;;;2.50;1.00;;;;;;5073694;28;20167;-81
2023/03/03 07:38:23;;;;;;;44.53;21.55;;;2.50;1.00;;;;;;4992299;28;20188;-83
2023/03/03 07:40:52;;;;;;;45.40;21.33;;;2.60;1.00;;;;;;5011195;28;20222;-80
2023/03/03 07:43:49;;;;;;;48.95;22.00;;;2.70;1.00;;;;;;5004102;28;20181;-80
2023/03/03 07:46:37;;;;;;;45.22;19.00;;;2.70;1.00;;;;;;5012046;28;20213;-76
2023/03/03 07:49:39;;;;;;;41.17;16.38;;;2.80;1.00;;;;;;5011856;28;20228;-76
2023/03/03 07:52:43;;;;;;;47.30;19.90;;;2.80;1.00;;;;;;4970703;28;20302;-75
2023/03/03 07:55:31;;;;;;;45.15;19.10;;;2.90;1.00;;;;;;4971136;28;20206;-75
2023/03/03 07:58:23;;;;;;;43.58;16.85;;;2.90;1.00;;;;;;4965185;28;20210;-76
2023/03/03 08:01:38;;;;;;;35.28;16.88;;;3.00;1.00;;;;;;4965870;28;20190;-74
2023/03/03 08:04:35;;;;;;;39.45;19.67;;;3.00;1.00;;;;;;4926119;29;20219;-74
2023/03/03 08:07:02;;;;;;;38.63;14.20;;;3.10;1.00;;;;;;4876929;29;20217;-74
2023/03/03 08:09:42;;;;;;;43.00;16.85;;;3.20;1.00;;;;;;4876921;29;20277;-75
2023/03/03 08:12:22;;;;;;;33.78;15.43;;;3.10;1.00;;;;;;4876506;29;20196;-75
2023/03/03 08:14:52;;;;;;;38.25;16.35;;;3.20;1.00;;;;;;4920317;29;20227;-74
2023/03/03 08:17:37;;;;;;;46.88;18.50;;;3.40;1.00;;;;;;4940865;29;20195;-74
2023/03/03 08:20:28;;;;;;;59.88;19.20;;;3.60;1.00;;;;;;4949569;29;20194;-74
2023/03/03 08:23:43;;;;;;;38.03;15.68;;;3.80;1.00;;;;;;4891129;29;20197;-80
2023/03/03 08:26:22;;;;;;;34.05;14.25;;;3.90;1.00;;;;;;4871730;29;20222;-81
2023/03/03 08:35:44;;;;;;;38.40;13.97;;;4.10;1.00;;;;;;4881214;29;20420;-81
2023/03/03 08:38:17;;;;;;;34.50;14.73;;;4.10;1.00;;;;;;4876193;29;20453;-81
2023/03/03 08:41:13;;;;;;;37.03;16.93;;;4.20;1.00;;;;;;4911330;29;20435;-81
2023/03/03 08:44:13;;;;;;;41.13;17.30;;;4.40;1.00;;;;;;4957661;28;20811;-80
2023/03/03 08:50:43;;;;;;;40.60;17.07;;;4.90;1.00;;;;;;5002555;28;20400;-81
2023/03/03 08:56:43;;;;;;;36.93;16.67;;;5.40;1.00;;;;;;5003137;28;20399;-81
2023/03/03 08:59:43;;;;;;;39.10;16.73;;;5.30;1.00;;;;;;5007842;28;20806;-81
2023/03/03 09:02:55;;;;;;;33.17;14.60;;;5.30;1.00;;;;;;5075410;28;20416;-81
2023/03/03 09:05:55;;;;;;;34.97;14.37;;;5.20;1.00;;;;;;5070410;28;20453;-81
2023/03/03 09:08:25;;;;;;;41.00;17.43;;;5.30;1.00;;;;;;5081486;28;20441;-81
2023/03/03 09:11:20;;;;;;;34.03;16.77;;;5.10;1.00;;;;;;5063062;28;20906;-81
2023/03/03 09:14:10;;;;;;;36.20;16.40;;;5.20;1.00;;;;;;5072288;28;20426;-81
2023/03/03 09:16:44;;;;;;;37.00;17.23;;;5.30;1.00;;;;;;5064422;28;20425;-81
2023/03/03 09:22:44;;;;;;;39.03;16.57;;;5.30;1.00;;;;;;5075320;28;20428;-81
2023/03/03 09:25:37;;;;;;;36.92;16.23;;;5.10;1.00;;;;;;5074162;28;20424;-80
2023/03/03 09:28:41;;;;;;;38.07;15.13;;;5.10;1.00;;;;;;5069808;28;20179;-80
2023/03/03 09:31:48;;;;;;;36.67;16.03;;;5.10;1.00;;;;;;4981926;28;20905;-80
2023/03/03 09:34:27;;;;;;;33.07;15.53;;;4.90;1.00;;;;;;4980495;28;20436;-80
2023/03/03 09:37:43;;;;;;;39.40;15.60;;;4.90;1.00;;;;;;4990482;28;20427;-81
2023/03/03 09:40:51;;;;;;;40.57;14.80;;;4.90;1.00;;;;;;4979156;28;20417;-80
2023/03/03 09:43:50;;;;;;;31.57;14.00;;;4.90;1.00;;;;;;4997392;28;20457;-81
2023/03/03 09:46:43;;;;;;;34.50;14.93;;;4.90;1.00;;;;;;4997481;28;20471;-81
2023/03/03 09:53:13;;;;;;;31.97;14.77;;;4.90;1.00;;;;;;5016673;28;20794;-81
2023/03/03 09:56:23;;;;;;;30.40;12.83;;;4.80;1.00;;;;;;5004639;28;20964;-81
2023/03/03 09:59:20;;;;;;;28.47;13.40;;;4.70;1.00;;;;;;4996801;28;20556;-81
2023/03/03 10:02:04;;;;;;;27.07;11.47;;;4.70;1.00;;;;;;5021952;28;20477;-82
2023/03/03 10:04:49;;;;;;;24.70;10.57;;;4.70;1.00;;;;;;5019235;28;20512;-82
2023/03/03 10:07:41;;;;;;;32.40;12.00;;;4.70;1.00;;;;;;5067321;28;20453;-80
2023/03/03 10:10:31;;;;;;;28.60;12.17;;;4.70;1.00;;;;;;5068827;28;20940;-81
2023/03/03 10:13:13;;;;;;;41.07;12.63;;;4.80;1.00;;;;;;5070971;28;20889;-81
2023/03/03 10:16:20;;;;;;;26.87;12.17;;;4.80;1.00;;;;;;5062170;28;20416;-81
2023/03/03 10:22:37;;;;;;;26.07;12.57;;;5.00;1.00;;;;;;5074111;28;20488;-80
2023/03/03 10:25:15;;;;;;;29.80;13.53;;;5.10;1.00;;;;;;5073732;28;20481;-81
2023/03/03 10:28:18;;;;;;;32.80;14.17;;;5.30;1.00;;;;;;5071482;28;20441;-81
2023/03/03 10:31:22;;;;;;;27.17;11.70;;;5.50;1.00;;;;;;5073160;28;20413;-81
2023/03/03 10:34:37;;;;;;;24.90;12.03;;;5.60;1.00;;;;;;5038485;28;20528;-81
2023/03/03 10:37:19;;;;;;;21.23;9.10;;;5.80;1.00;;;;;;5062030;28;20437;-81
2023/03/03 10:40:31;;;;;;;24.83;11.30;;;5.80;1.00;;;;;;5065834;28;20436;-80
2023/03/03 10:43:37;;;;;;;20.87;10.57;;;5.70;1.00;;;;;;5077558;28;20425;-81
2023/03/03 10:46:19;;;;;;;22.20;11.20;;;5.80;1.00;;;;;;5074084;28;20456;-81
2023/03/03 10:49:04;;;;;;;25.67;11.70;;;6.00;1.00;;;;;;5071537;28;20461;-80
2023/03/03 10:55:19;;;;;;;21.10;9.97;;;6.10;1.00;;;;;;5072042;28;20408;-77
2023/03/03 11:01:50;;;;;;;24.90;10.40;;;6.20;1.00;;;;;;5057629;28;20467;-77
2023/03/03 11:04:42;;;;;;;25.30;10.20;;;6.40;1.00;;;;;;5071692;28;20800;-79
2023/03/03 11:07:45;;;;;;;22.73;9.80;;;6.30;1.00;;;;;;5062424;28;20457;-80
2023/03/03 11:14:13;;;;;;;20.97;9.67;;;6.20;1.00;;;;;;5081360;28;20463;-85
2023/03/03 11:17:13;;;;;;;16.73;9.00;;;6.20;1.00;;;;;;5055844;28;20433;-83
2023/03/03 11:19:43;;;;;;;23.43;10.13;;;6.20;1.00;;;;;;5073591;28;20402;-82
2023/03/03 11:22:42;;;;;;;18.03;9.67;;;6.30;1.00;;;;;;5042863;28;20410;-81
2023/03/03 11:28:51;;;;;;;19.90;9.40;;;6.50;1.00;;;;;;5073298;28;20452;-81
2023/03/03 11:31:37;;;;;;;21.40;9.03;;;6.50;1.00;;;;;;5073462;28;21114;-81
2023/03/03 11:34:37;;;;;;;23.10;9.50;;;6.50;1.00;;;;;;5071790;28;20427;-80
2023/03/03 11:41:28;;;;;;;15.20;8.13;;;6.80;1.00;;;;;;5079471;28;20438;-82
2023/03/03 11:47:43;;;;;;;20.63;9.80;;;6.80;1.00;;;;;;4985440;28;20503;-82
2023/03/03 11:54:13;;;;;;;21.57;10.33;;;7.00;1.00;;;;;;4983365;28;20415;-82
2023/03/03 12:00:19;;;;;;;18.80;8.73;;;7.30;1.00;;;;;;4990802;28;20416;-81
2023/03/03 12:06:46;;;;;;;19.40;10.00;;;7.20;1.00;;;;;;4991400;28;20564;-82
2023/03/03 12:12:49;;;;;;;18.63;8.23;;;7.10;1.00;;;;;;4991564;28;20888;-79
2023/03/03 12:18:51;;;;;;;17.80;8.50;;;7.40;1.00;;;;;;5069964;28;20455;-80
2023/03/03 12:21:43;;;;;;;18.47;10.30;;;7.50;1.00;;;;;;5063743;28;20943;-80
2023/03/03 12:24:43;;;;;;;20.10;10.50;;;7.50;1.00;;;;;;5074452;28;20409;-79
2023/03/03 12:27:30;;;;;;;14.60;7.87;;;7.60;1.00;;;;;;5064507;28;20470;-81
2023/03/03 12:30:33;;;;;;;27.90;9.90;;;7.70;1.00;;;;;;5064985;28;20741;-81
2023/03/03 12:33:43;;;;;;;18.43;8.87;;;7.90;1.00;;;;;;5073985;28;20409;-81
2023/03/03 12:40:13;;;;;;;18.00;8.33;;;8.10;1.00;;;;;;5076241;28;20460;-80
2023/03/03 12:46:22;;;;;;;15.73;8.27;;;8.30;1.00;;;;;;5066410;28;20463;-81
2023/03/03 12:48:48;;;;;;;15.90;8.73;;;8.30;1.00;;;;;;5063297;28;20398;-79
2023/03/03 12:51:43;;;;;;;16.73;9.60;;;8.30;1.00;;;;;;5076276;28;20428;-79
2023/03/03 12:54:46;;;;;;;18.60;9.20;;;8.50;1.00;;;;;;5063085;28;20175;-79
2023/03/03 12:57:43;;;;;;;19.17;8.30;;;8.60;1.00;;;;;;5057746;28;20510;-79
2023/03/03 13:10:31;;;;;;;17.10;8.27;;;9.00;1.00;;;;;;5070128;28;20449;-79
2023/03/03 13:13:17;;;;;;;15.53;7.87;;;9.10;1.00;;;;;;5070869;28;20421;-79
2023/03/03 13:22:49;;;;;;;30.40;15.57;;;9.10;1.00;;;;;;5065854;28;20392;-79
2023/03/03 13:25:43;;;;;;;38.90;19.77;;;9.10;1.00;;;;;;5064815;28;20488;-79
2023/03/03 13:28:54;;;;;;;46.27;22.50;;;9.10;1.00;;;;;;5074955;28;21030;-79
2023/03/03 13:35:19;;;;;;;44.73;21.67;;;9.20;1.00;;;;;;5067307;28;20394;-81
2023/03/03 13:38:05;;;;;;;44.23;22.17;;;9.40;1.00;;;;;;5073979;28;20524;-82
2023/03/03 13:41:04;;;;;;;40.60;20.60;;;9.40;1.00;;;;;;5075367;28;20462;-81
2023/03/03 13:44:13;;;;;;;44.67;21.07;;;9.50;1.00;;;;;;5075198;28;20888;-81
2023/03/03 13:47:16;;;;;;;37.67;18.70;;;9.40;1.00;;;;;;5055706;28;20452;-81
2023/03/03 13:50:13;;;;;;;40.50;17.57;;;9.50;1.00;;;;;;5060455;28;20425;-82
2023/03/03 13:53:29;;;;;;;28.33;14.90;;;9.60;1.00;;;;;;5069673;28;20420;-81
2023/03/03 13:59:47;;;;;;;24.57;12.57;;;9.80;1.00;;;;;;5054896;28;20409;-80
2023/03/03 14:03:04;;;;;;;22.53;12.47;;;9.80;1.00;;;;;;5046471;28;20413;-81
2023/03/03 14:06:13;;;;;;;27.23;13.17;;;9.90;1.00;;;;;;4977688;28;20422;-79
2023/03/03 14:08:54;;;;;;;20.83;11.40;;;10.00;1.00;;;;;;5002554;28;20822;-79
2023/03/03 14:15:17;;;;;;;18.00;9.30;;;9.80;1.00;;;;;;5025532;28;20478;-80
2023/03/03 14:18:13;;;;;;;14.13;8.70;;;9.70;1.00;;;;;;4954291;29;20434;-79
2023/03/03 14:21:16;;;;;;;15.87;8.80;;;9.60;1.00;;;;;;4935465;29;20477;-79
2023/03/03 14:27:43;;;;;;;15.23;8.20;;;9.60;1.00;;;;;;4934809;29;20603;-79
2023/03/03 14:30:43;;;;;;;14.17;8.00;;;9.60;1.00;;;;;;4935130;29;20446;-79
2023/03/03 14:33:46;;;;;;;11.83;6.90;;;9.70;1.00;;;;;;4935334;29;20422;-79
2023/03/03 14:36:15;;;;;;;13.53;7.43;;;9.70;1.00;;;;;;4927693;29;20438;-81
2023/03/03 14:38:46;;;;;;;13.63;7.90;;;9.80;1.00;;;;;;4930207;29;20434;-81
2023/03/03 14:45:13;;;;;;;11.60;6.20;;;9.80;1.00;;;;;;4963797;28;20431;-81
2023/03/03 14:47:50;;;;;;;12.90;7.40;;;9.80;1.00;;;;;;4962613;28;20433;-81
2023/03/03 14:50:37;;;;;;;14.70;6.90;;;9.90;1.00;;;;;;4957513;28;20429;-79
2023/03/03 14:53:43;;;;;;;13.13;7.33;;;10.00;1.00;;;;;;4983890;28;20412;-79
2023/03/03 14:56:55;;;;;;;12.77;7.57;;;10.10;1.00;;;;;;5071209;28;20396;-80
2023/03/03 15:00:13;;;;;;;14.30;8.17;;;10.20;1.00;;;;;;5066950;28;20524;-79
2023/03/03 15:03:13;;;;;;;14.60;6.87;;;10.20;1.00;;;;;;5067731;28;20409;-79
2023/03/03 15:05:58;;;;;;;13.77;7.00;;;10.30;1.00;;;;;;5068097;28;20480;-78
2023/03/03 15:08:44;;;;;;;10.70;6.23;;;10.30;1.00;;;;;;5069423;28;20494;-79
2023/03/03 15:11:29;;;;;;;14.70;6.87;;;10.30;1.00;;;;;;5057479;28;20449;-79
2023/03/03 15:14:23;;;;;;;13.87;6.33;;;10.40;1.00;;;;;;5066544;28;20781;-79
2023/03/03 15:17:34;;;;;;;11.70;6.57;;;10.30;1.00;;;;;;4987592;28;20522;-79
2023/03/03 15:20:21;;;;;;;12.77;6.30;;;10.20;1.00;;;;;;4901591;29;20759;-79
2023/03/03 15:23:26;;;;;;;10.60;6.23;;;10.10;1.00;;;;;;4908051;29;20439;-78
2023/03/03 15:26:21;;;;;;;9.83;6.03;;;10.10;1.00;;;;;;4910963;29;20555;-79
2023/03/03 15:29:13;;;;;;;11.27;6.30;;;10.00;1.00;;;;;;4905709;29;20428;-79
2023/03/03 15:32:07;;;;;;;17.43;6.23;;;9.90;1.00;;;;;;4907637;29;20444;-80
2023/03/03 15:38:14;;;;;;;9.10;6.13;;;9.80;1.00;;;;;;4896261;29;20422;-80
2023/03/03 15:44:44;;;;;;;9.63;5.80;;;9.70;1.00;;;;;;4907601;29;20456;-81
2023/03/03 15:51:13;;;;;;;10.20;5.50;;;10.00;1.00;;;;;;4905856;29;20400;-80
2023/03/03 15:54:13;;;;;;;8.93;5.10;;;10.60;1.00;;;;;;4927150;28;20903;-80
2023/03/03 15:56:47;;;;;;;20.20;5.80;;;11.40;1.00;;;;;;5009292;28;20472;-80
2023/03/03 15:59:51;;;;;;;13.30;6.23;;;12.20;1.00;;;;;;5076762;28;20417;-82
2023/03/03 16:02:43;;;;;;;8.50;5.37;;;12.80;1.00;;;;;;5078200;28;20438;-82
2023/03/03 16:05:37;;;;;;;8.13;5.30;;;13.60;1.00;;;;;;5046936;28;20523;-84
2023/03/03 16:08:40;;;;;;;7.90;5.33;;;14.10;1.00;;;;;;5063189;28;20741;-78
2023/03/03 16:11:17;;;;;;;8.13;5.27;;;14.70;1.00;;;;;;5073152;28;20432;-77
2023/03/03 16:13:42;;;;;;;9.80;5.80;;;15.30;1.00;;;;;;5070719;28;20425;-77
2023/03/03 16:16:55;;;;;;;9.27;5.50;;;15.40;1.00;;;;;;5076792;28;20392;-77
2023/03/03 16:20:00;;;;;;;13.70;6.00;;;15.40;1.00;;;;;;5071022;28;20176;-77
2023/03/03 16:22:48;;;;;;;13.80;5.70;;;14.80;1.00;;;;;;5077079;28;20608;-83
2023/03/03 16:29:04;;;;;;;9.30;4.77;;;13.80;1.00;;;;;;5064409;28;20418;-83
2023/03/03 16:32:13;;;;;;;11.40;6.00;;;13.20;1.00;;;;;;5067260;28;20395;-82
2023/03/03 16:38:22;;;;;;;10.33;5.40;;;12.00;1.00;;;;;;5066975;28;20982;-77
2023/03/03 16:41:13;;;;;;;8.67;4.40;;;11.40;1.00;;;;;;5063281;28;20463;-77
2023/03/03 16:44:34;;;;;;;6.13;4.63;;;10.90;1.00;;;;;;5075019;28;20405;-78
2023/03/03 16:47:55;;;;;;;7.47;5.00;;;10.40;1.00;;;;;;5003289;28;20511;-78
2023/03/03 16:57:43;;;;;;;8.97;4.77;;;8.80;1.00;;;;;;4982524;28;20476;-78
2023/03/03 17:00:51;;;;;;;7.43;4.77;;;8.30;1.00;;;;;;4982756;28;20428;-78
2023/03/03 17:03:42;;;;;;;9.10;5.10;;;7.90;1.00;;;;;;4994182;28;20420;-78
2023/03/03 17:10:13;;;;;;;7.87;4.23;;;7.40;1.00;;;;;;4992128;28;20415;-83
2023/03/03 17:12:47;;;;;;;6.20;4.10;;;7.10;1.00;;;;;;4978975;28;20559;-84
2023/03/03 17:15:58;;;;;;;6.37;4.33;;;6.90;1.00;;;;;;4992331;28;20425;-83
2023/03/03 17:21:56;;;;;;;6.40;4.20;;;6.50;1.00;;;;;;5050384;28;20810;-84
2023/03/03 17:28:19;;;;;;;9.47;5.10;;;6.20;1.00;;;;;;5065990;28;20467;-78
2023/03/03 17:31:19;;;;;;;7.80;4.50;;;6.10;1.00;;;;;;5074009;28;20430;-78
2023/03/03 17:34:15;;;;;;;7.70;4.30;;;6.00;1.00;;;;;;5057354;28;20507;-78
2023/03/03 17:36:46;;;;;;;6.80;3.97;;;5.90;1.00;;;;;;5072087;28;20503;-78
2023/03/03 17:39:55;;;;;;;8.23;4.63;;;5.70;1.00;;;;;;5056525;28;20410;-84
2023/03/03 17:43:13;;;;;;;7.20;4.03;;;5.60;1.00;;;;;;5056083;28;20425;-84
2023/03/03 17:46:16;;;;;;;9.53;3.90;;;5.60;1.00;;;;;;5051698;28;20468;-85
2023/03/03 17:52:43;;;;;;;8.97;4.70;;;5.40;1.00;;;;;;5061970;28;20396;-76
2023/03/03 17:59:13;;;;;;;5.20;3.47;;;5.20;1.00;;;;;;5072650;28;20440;-83
2023/03/03 18:02:26;;;;;;;7.00;3.90;;;5.20;1.00;;;;;;5055704;28;20820;-83
2023/03/03 18:12:04;;;;;;;7.20;3.70;;;5.10;1.00;;;;;;5062670;28;20424;-81
2023/03/03 18:14:54;;;;;;;8.93;4.20;;;5.00;1.00;;;;;;5073616;28;20915;-81
2023/03/03 18:17:52;;;;;;;7.33;3.93;;;4.90;1.00;;;;;;5074419;28;20425;-82
2023/03/03 18:20:43;;;;;;;13.03;3.80;;;4.90;1.00;;;;;;5056743;28;20752;-87
2023/03/03 18:23:34;;;;;;;6.07;3.73;;;4.80;1.00;;;;;;5074627;28;20950;-84
2023/03/03 18:26:28;;;;;;;7.20;4.10;;;4.70;1.00;;;;;;5074348;28;20528;-82
2023/03/03 18:29:15;;;;;;;6.60;3.70;;;4.60;1.00;;;;;;4993612;28;20435;-83
2023/03/03 18:32:18;;;;;;;8.57;3.90;;;4.60;1.00;;;;;;5012655;28;20898;-82
2023/03/03 18:38:18;;;;;;;9.60;3.53;;;4.40;1.00;;;;;;5007571;28;20459;-83
2023/03/03 18:41:13;;;;;;;12.87;4.70;;;4.40;1.00;;;;;;5013218;28;20420;-83
2023/03/03 18:47:43;;;;;;;5.17;3.40;;;4.20;1.00;;;;;;5009677;28;20463;-83
2023/03/03 18:50:43;;;;;;;9.63;4.70;;;4.10;1.00;;;;;;4984858;28;20427;-83
2023/03/03 18:54:05;;;;;;;8.70;4.57;;;4.00;1.00;;;;;;4991839;28;20420;-83